sensor_id;sensor_type;location;lat;lon;timestamp;temperature;humidity
18894;DHT22;9579;49.488;8.226;2023-11-19T00:02:48;13.00;99.90
18894;DHT22;9579;49.488;8.226;2023-11-19T00:05:35;12.10;99.90
18894;DHT22;9579;49.488;8.226;2023-11-19T00:08:23;11.40;99.90
18894;DHT22;9579;49.488;8.226;2023-11-19T00:11:10;11.50;99.90
18894;DHT22;9579;49.488;8.226;2023-11-19T00:14:01;11.00;99.90
18894;DHT22;9579;49.488;8.226;2023-11-19T00:16:48;12.40;99.90
18894;DHT22;9579;49.488;8.226;2023-11-19T00:19:38;11.90;99.90
18894;DHT22;9579;49.488;8.226;2023-11-19T00:22:25;11.40;99.90
18894;DHT22;9579;49.488;8.226;2023-11-19T00:25:14;11.90;99.90
18894;DHT22;9579;49.488;8.226;2023-11-19T00:28:01;11.30;99.90
18894;DHT22;9579;49.488;8.226;2023-11-19T00:30:48;11.50;99.90
18894;DHT22;9579;49.488;8.226;2023-11-19T00:33:35;11.90;99.90
18894;DHT22;9579;49.488;8.226;2023-11-19T00:36:24;12.60;99.90
18894;DHT22;9579;49.488;8.226;2023-11-19T00:39:11;12.00;99.90
18894;DHT22;9579;49.488;8.226;2023-11-19T00:42:00;11.40;99.90
18894;DHT22;9579;49.488;8.226;2023-11-19T00:44:48;11.40;99.90
18894;DHT22;9579;49.488;8.226;2023-11-19T00:47:35;11.40;99.90
18894;DHT22;9579;49.488;8.226;2023-11-19T00:50:22;11.50;99.90
18894;DHT22;9579;49.488;8.226;2023-11-19T00:53:11;11.50;99.90
18894;DHT22;9579;49.488;8.226;2023-11-19T00:55:58;11.40;99.90
18894;DHT22;9579;49.488;8.226;2023-11-19T00:58:45;12.10;99.90
18894;DHT22;9579;49.488;8.226;2023-11-19T01:01:33;11.30;99.90
18894;DHT22;9579;49.488;8.226;2023-11-19T01:04:20;12.10;99.90
18894;DHT22;9579;49.488;8.226;2023-11-19T01:07:08;11.30;99.90
18894;DHT22;9579;49.488;8.226;2023-11-19T01:09:59;11.30;99.90
18894;DHT22;9579;49.488;8.226;2023-11-19T01:12:39;11.40;99.90
18894;DHT22;9579;49.488;8.226;2023-11-19T01:15:27;12.50;99.90
18894;DHT22;9579;49.488;8.226;2023-11-19T01:18:14;11.50;99.90
18894;DHT22;9579;49.488;8.226;2023-11-19T01:21:03;12.20;99.90
18894;DHT22;9579;49.488;8.226;2023-11-19T01:23:50;11.60;99.90
18894;DHT22;9579;49.488;8.226;2023-11-19T01:26:39;11.80;99.90
18894;DHT22;9579;49.488;8.226;2023-11-19T01:29:30;11.80;99.90
18894;DHT22;9579;49.488;8.226;2023-11-19T01:34:53;11.60;99.90
18894;DHT22;9579;49.488;8.226;2023-11-19T01:37:41;11.60;99.90
18894;DHT22;9579;49.488;8.226;2023-11-19T01:40:29;11.70;99.90
18894;DHT22;9579;49.488;8.226;2023-11-19T01:46:17;12.00;99.90
18894;DHT22;9579;49.488;8.226;2023-11-19T01:49:20;11.90;99.90
18894;DHT22;9579;49.488;8.226;2023-11-19T01:52:15;11.50;99.90
18894;DHT22;9579;49.488;8.226;2023-11-19T01:55:09;11.80;99.90
18894;DHT22;9579;49.488;8.226;2023-11-19T01:58:04;12.00;99.90
18894;DHT22;9579;49.488;8.226;2023-11-19T02:01:11;11.80;99.90
18894;DHT22;9579;49.488;8.226;2023-11-19T02:04:14;11.20;99.90
18894;DHT22;9579;49.488;8.226;2023-11-19T02:09:43;11.90;99.90
18894;DHT22;9579;49.488;8.226;2023-11-19T02:12:31;12.50;99.90
18894;DHT22;9579;49.488;8.226;2023-11-19T02:15:19;12.10;99.90
18894;DHT22;9579;49.488;8.226;2023-11-19T02:18:20;12.20;99.90
18894;DHT22;9579;49.488;8.226;2023-11-19T02:21:08;12.20;99.90
18894;DHT22;9579;49.488;8.226;2023-11-19T02:23:56;12.30;99.90
18894;DHT22;9579;49.488;8.226;2023-11-19T02:26:50;13.50;99.90
18894;DHT22;9579;49.488;8.226;2023-11-19T02:29:38;13.20;99.90
18894;DHT22;9579;49.488;8.226;2023-11-19T02:32:27;13.00;99.90
18894;DHT22;9579;49.488;8.226;2023-11-19T02:35:16;12.80;99.90
18894;DHT22;9579;49.488;8.226;2023-11-19T02:38:05;11.50;99.90
18894;DHT22;9579;49.488;8.226;2023-11-19T02:40:53;12.60;99.90
18894;DHT22;9579;49.488;8.226;2023-11-19T02:43:54;12.90;99.90
18894;DHT22;9579;49.488;8.226;2023-11-19T02:46:43;12.90;99.90
18894;DHT22;9579;49.488;8.226;2023-11-19T02:49:34;13.40;99.90
18894;DHT22;9579;49.488;8.226;2023-11-19T02:52:23;13.90;99.90
18894;DHT22;9579;49.488;8.226;2023-11-19T02:55:11;12.30;99.90
18894;DHT22;9579;49.488;8.226;2023-11-19T02:58:07;11.40;99.90
18894;DHT22;9579;49.488;8.226;2023-11-19T03:01:05;13.00;99.90
18894;DHT22;9579;49.488;8.226;2023-11-19T03:04:00;12.00;99.90
18894;DHT22;9579;49.488;8.226;2023-11-19T03:06:48;12.20;99.90
18894;DHT22;9579;49.488;8.226;2023-11-19T03:09:36;13.20;99.90
18894;DHT22;9579;49.488;8.226;2023-11-19T03:12:32;12.30;99.90
18894;DHT22;9579;49.488;8.226;2023-11-19T03:18:34;12.30;99.90
18894;DHT22;9579;49.488;8.226;2023-11-19T03:26:55;12.30;99.90
18894;DHT22;9579;49.488;8.226;2023-11-19T04:10:53;11.10;99.90
18894;DHT22;9579;49.488;8.226;2023-11-19T04:13:41;11.80;99.90
18894;DHT22;9579;49.488;8.226;2023-11-19T04:40:20;11.10;99.90
18894;DHT22;9579;49.488;8.226;2023-11-19T04:43:09;12.00;99.90
18894;DHT22;9579;49.488;8.226;2023-11-19T04:45:59;12.00;99.90
18894;DHT22;9579;49.488;8.226;2023-11-19T04:48:47;13.40;99.90
18894;DHT22;9579;49.488;8.226;2023-11-19T04:51:48;12.30;99.90
18894;DHT22;9579;49.488;8.226;2023-11-19T04:54:50;12.20;99.90
18894;DHT22;9579;49.488;8.226;2023-11-19T05:01:25;12.20;99.90
18894;DHT22;9579;49.488;8.226;2023-11-19T05:04:51;12.10;99.90
18894;DHT22;9579;49.488;8.226;2023-11-19T05:11:46;12.90;99.90
18894;DHT22;9579;49.488;8.226;2023-11-19T05:15:16;11.00;99.90
18894;DHT22;9579;49.488;8.226;2023-11-19T05:28:12;12.70;99.90
18894;DHT22;9579;49.488;8.226;2023-11-19T05:40:23;12.70;99.90
18894;DHT22;9579;49.488;8.226;2023-11-19T05:43:12;12.10;99.90
18894;DHT22;9579;49.488;8.226;2023-11-19T05:48:39;12.70;99.90
18894;DHT22;9579;49.488;8.226;2023-11-19T05:51:29;11.70;99.90
18894;DHT22;9579;49.488;8.226;2023-11-19T06:08:54;12.80;99.90
18894;DHT22;9579;49.488;8.226;2023-11-19T06:12:26;12.80;99.90
18894;DHT22;9579;49.488;8.226;2023-11-19T06:18:54;12.70;99.90
18894;DHT22;9579;49.488;8.226;2023-11-19T06:21:46;14.00;99.90
18894;DHT22;9579;49.488;8.226;2023-11-19T06:41:46;13.80;99.90
18894;DHT22;9579;49.488;8.226;2023-11-19T06:49:48;14.00;99.90
18894;DHT22;9579;49.488;8.226;2023-11-19T06:59:19;14.10;99.90
18894;DHT22;9579;49.488;8.226;2023-11-19T07:02:09;13.60;99.90
18894;DHT22;9579;49.488;8.226;2023-11-19T07:12:58;14.20;99.90
18894;DHT22;9579;49.488;8.226;2023-11-19T07:15:47;15.20;99.90
18894;DHT22;9579;49.488;8.226;2023-11-19T07:27:05;14.40;99.90
18894;DHT22;9579;49.488;8.226;2023-11-19T07:30:24;14.00;99.90
18894;DHT22;9579;49.488;8.226;2023-11-19T07:39:30;14.60;99.90
18894;DHT22;9579;49.488;8.226;2023-11-19T07:42:20;14.60;99.90
18894;DHT22;9579;49.488;8.226;2023-11-19T07:48:29;13.70;99.90
18894;DHT22;9579;49.488;8.226;2023-11-19T07:52:19;14.80;99.90
18894;DHT22;9579;49.488;8.226;2023-11-19T07:55:31;14.10;99.90
18894;DHT22;9579;49.488;8.226;2023-11-19T07:58:37;13.80;99.90
18894;DHT22;9579;49.488;8.226;2023-11-19T10:09:28;16.70;99.90
18894;DHT22;9579;49.488;8.226;2023-11-19T11:04:40;17.00;99.90
18894;DHT22;9579;49.488;8.226;2023-11-19T11:22:21;16.40;99.90
18894;DHT22;9579;49.488;8.226;2023-11-19T11:41:19;18.00;99.90
18894;DHT22;9579;49.488;8.226;2023-11-19T12:17:43;16.00;99.90
18894;DHT22;9579;49.488;8.226;2023-11-19T12:49:01;16.60;99.90
18894;DHT22;9579;49.488;8.226;2023-11-19T12:51:55;17.00;99.90
18894;DHT22;9579;49.488;8.226;2023-11-19T12:57:39;17.30;99.90
18894;DHT22;9579;49.488;8.226;2023-11-19T13:00:27;17.70;99.90
18894;DHT22;9579;49.488;8.226;2023-11-19T13:03:29;18.20;99.90
18894;DHT22;9579;49.488;8.226;2023-11-19T13:06:18;19.00;99.90
18894;DHT22;9579;49.488;8.226;2023-11-19T13:09:07;18.90;99.90
18894;DHT22;9579;49.488;8.226;2023-11-19T13:11:58;18.80;99.90
18894;DHT22;9579;49.488;8.226;2023-11-19T13:14:49;19.30;99.90
18894;DHT22;9579;49.488;8.226;2023-11-19T13:17:37;19.20;99.90
18894;DHT22;9579;49.488;8.226;2023-11-19T13:20:24;19.50;99.90
18894;DHT22;9579;49.488;8.226;2023-11-19T13:23:12;19.90;99.60
18894;DHT22;9579;49.488;8.226;2023-11-19T13:26:00;20.30;97.90
18894;DHT22;9579;49.488;8.226;2023-11-19T13:28:52;20.10;97.30
18894;DHT22;9579;49.488;8.226;2023-11-19T13:31:39;20.70;98.20
18894;DHT22;9579;49.488;8.226;2023-11-19T13:34:26;20.40;97.30
18894;DHT22;9579;49.488;8.226;2023-11-19T13:37:13;20.80;97.50
18894;DHT22;9579;49.488;8.226;2023-11-19T13:40:02;21.30;96.60
18894;DHT22;9579;49.488;8.226;2023-11-19T13:42:49;21.20;95.90
18894;DHT22;9579;49.488;8.226;2023-11-19T13:45:36;21.10;96.70
18894;DHT22;9579;49.488;8.226;2023-11-19T13:48:23;21.30;95.90
18894;DHT22;9579;49.488;8.226;2023-11-19T13:51:12;21.30;95.80
18894;DHT22;9579;49.488;8.226;2023-11-19T13:53:59;21.50;96.30
18894;DHT22;9579;49.488;8.226;2023-11-19T13:56:47;21.70;95.20
18894;DHT22;9579;49.488;8.226;2023-11-19T13:59:39;22.00;94.40
18894;DHT22;9579;49.488;8.226;2023-11-19T14:02:26;21.80;94.50
18894;DHT22;9579;49.488;8.226;2023-11-19T14:05:14;21.70;94.60
18894;DHT22;9579;49.488;8.226;2023-11-19T14:08:03;21.70;94.30
18894;DHT22;9579;49.488;8.226;2023-11-19T14:10:57;21.00;94.60
18894;DHT22;9579;49.488;8.226;2023-11-19T14:13:53;20.50;96.40
18894;DHT22;9579;49.488;8.226;2023-11-19T14:16:40;20.30;96.20
18894;DHT22;9579;49.488;8.226;2023-11-19T14:19:27;20.50;95.40
18894;DHT22;9579;49.488;8.226;2023-11-19T14:25:08;19.10;96.50
18894;DHT22;9579;49.488;8.226;2023-11-19T14:27:58;18.20;97.70
18894;DHT22;9579;49.488;8.226;2023-11-19T14:41:13;18.00;99.10
18894;DHT22;9579;49.488;8.226;2023-11-19T14:44:00;18.80;98.90
18894;DHT22;9579;49.488;8.226;2023-11-19T14:46:49;20.10;97.60
18894;DHT22;9579;49.488;8.226;2023-11-19T14:49:36;21.20;94.80
18894;DHT22;9579;49.488;8.226;2023-11-19T14:52:23;21.30;95.30
18894;DHT22;9579;49.488;8.226;2023-11-19T14:55:10;19.90;95.60
18894;DHT22;9579;49.488;8.226;2023-11-19T14:58:05;19.70;96.30
18894;DHT22;9579;49.488;8.226;2023-11-19T15:01:11;18.30;97.30
18894;DHT22;9579;49.488;8.226;2023-11-19T15:30:58;15.80;99.90
18894;DHT22;9579;49.488;8.226;2023-11-19T15:33:45;16.00;99.90
18894;DHT22;9579;49.488;8.226;2023-11-19T15:36:33;15.90;99.90
18894;DHT22;9579;49.488;8.226;2023-11-19T15:39:21;15.80;99.90
18894;DHT22;9579;49.488;8.226;2023-11-19T15:42:08;15.70;99.90
18894;DHT22;9579;49.488;8.226;2023-11-19T15:44:57;15.70;99.90
18894;DHT22;9579;49.488;8.226;2023-11-19T15:47:45;15.70;99.90
18894;DHT22;9579;49.488;8.226;2023-11-19T15:50:32;15.60;99.90
18894;DHT22;9579;49.488;8.226;2023-11-19T15:53:19;15.60;99.90
18894;DHT22;9579;49.488;8.226;2023-11-19T15:56:06;15.60;99.90
18894;DHT22;9579;49.488;8.226;2023-11-19T15:58:53;15.50;99.90
18894;DHT22;9579;49.488;8.226;2023-11-19T16:01:40;15.50;99.90
18894;DHT22;9579;49.488;8.226;2023-11-19T16:04:29;15.30;99.90
18894;DHT22;9579;49.488;8.226;2023-11-19T16:07:16;15.20;99.90
18894;DHT22;9579;49.488;8.226;2023-11-19T16:10:03;15.20;99.90
18894;DHT22;9579;49.488;8.226;2023-11-19T16:12:50;15.10;99.90
18894;DHT22;9579;49.488;8.226;2023-11-19T16:15:38;15.20;99.90
18894;DHT22;9579;49.488;8.226;2023-11-19T16:18:25;15.20;99.90
18894;DHT22;9579;49.488;8.226;2023-11-19T16:21:14;15.20;99.90
18894;DHT22;9579;49.488;8.226;2023-11-19T16:24:02;15.20;99.90
18894;DHT22;9579;49.488;8.226;2023-11-19T16:26:49;15.10;99.90
18894;DHT22;9579;49.488;8.226;2023-11-19T16:29:36;15.10;99.90
18894;DHT22;9579;49.488;8.226;2023-11-19T16:32:23;15.20;99.90
18894;DHT22;9579;49.488;8.226;2023-11-19T16:35:11;15.10;99.90
18894;DHT22;9579;49.488;8.226;2023-11-19T16:37:59;15.10;99.90
18894;DHT22;9579;49.488;8.226;2023-11-19T16:40:46;15.10;99.90
18894;DHT22;9579;49.488;8.226;2023-11-19T16:43:36;15.10;99.90
18894;DHT22;9579;49.488;8.226;2023-11-19T16:46:23;15.10;99.90
18894;DHT22;9579;49.488;8.226;2023-11-19T16:49:10;15.00;99.90
18894;DHT22;9579;49.488;8.226;2023-11-19T16:51:57;15.10;99.90
18894;DHT22;9579;49.488;8.226;2023-11-19T16:54:45;15.10;99.90
18894;DHT22;9579;49.488;8.226;2023-11-19T16:57:33;15.20;99.90
18894;DHT22;9579;49.488;8.226;2023-11-19T17:00:20;15.10;99.90
18894;DHT22;9579;49.488;8.226;2023-11-19T17:03:07;15.20;99.90
18894;DHT22;9579;49.488;8.226;2023-11-19T17:05:55;15.10;99.90
18894;DHT22;9579;49.488;8.226;2023-11-19T17:08:42;15.10;99.90
18894;DHT22;9579;49.488;8.226;2023-11-19T17:11:30;15.10;99.90
18894;DHT22;9579;49.488;8.226;2023-11-19T17:14:17;15.00;99.90
18894;DHT22;9579;49.488;8.226;2023-11-19T17:17:05;15.10;99.90
18894;DHT22;9579;49.488;8.226;2023-11-19T17:19:52;15.00;99.90
18894;DHT22;9579;49.488;8.226;2023-11-19T17:22:39;15.00;99.90
18894;DHT22;9579;49.488;8.226;2023-11-19T17:25:27;15.10;99.90
18894;DHT22;9579;49.488;8.226;2023-11-19T17:28:15;15.00;99.90
18894;DHT22;9579;49.488;8.226;2023-11-19T17:31:03;15.00;99.90
18894;DHT22;9579;49.488;8.226;2023-11-19T17:33:50;15.00;99.90
18894;DHT22;9579;49.488;8.226;2023-11-19T17:36:37;14.90;99.90
18894;DHT22;9579;49.488;8.226;2023-11-19T17:39:24;14.80;99.90
18894;DHT22;9579;49.488;8.226;2023-11-19T17:42:12;14.80;99.90
18894;DHT22;9579;49.488;8.226;2023-11-19T17:45:01;14.80;99.90
18894;DHT22;9579;49.488;8.226;2023-11-19T17:47:51;14.80;99.90
18894;DHT22;9579;49.488;8.226;2023-11-19T17:50:38;14.80;99.90
18894;DHT22;9579;49.488;8.226;2023-11-19T17:53:25;14.80;99.90
18894;DHT22;9579;49.488;8.226;2023-11-19T17:56:12;14.80;99.90
18894;DHT22;9579;49.488;8.226;2023-11-19T17:59:00;14.80;99.90
18894;DHT22;9579;49.488;8.226;2023-11-19T18:01:48;14.80;99.90
18894;DHT22;9579;49.488;8.226;2023-11-19T18:04:36;14.60;99.90
18894;DHT22;9579;49.488;8.226;2023-11-19T18:07:24;14.70;99.90
18894;DHT22;9579;49.488;8.226;2023-11-19T18:10:11;14.70;99.90
18894;DHT22;9579;49.488;8.226;2023-11-19T18:12:58;14.60;99.90
18894;DHT22;9579;49.488;8.226;2023-11-19T18:15:45;14.70;99.90
18894;DHT22;9579;49.488;8.226;2023-11-19T18:18:33;14.70;99.90
18894;DHT22;9579;49.488;8.226;2023-11-19T18:21:20;14.60;99.90
18894;DHT22;9579;49.488;8.226;2023-11-19T18:24:08;14.50;99.90
18894;DHT22;9579;49.488;8.226;2023-11-19T18:26:55;14.50;99.90
18894;DHT22;9579;49.488;8.226;2023-11-19T18:29:42;14.50;99.90
18894;DHT22;9579;49.488;8.226;2023-11-19T18:32:29;14.50;99.90
18894;DHT22;9579;49.488;8.226;2023-11-19T18:35:18;14.40;99.90
18894;DHT22;9579;49.488;8.226;2023-11-19T18:38:09;14.30;99.90
18894;DHT22;9579;49.488;8.226;2023-11-19T18:40:56;14.30;99.90
18894;DHT22;9579;49.488;8.226;2023-11-19T18:43:43;14.40;99.90
18894;DHT22;9579;49.488;8.226;2023-11-19T18:46:30;14.40;99.90
18894;DHT22;9579;49.488;8.226;2023-11-19T18:49:17;14.30;99.90
18894;DHT22;9579;49.488;8.226;2023-11-19T18:52:05;14.30;99.90
18894;DHT22;9579;49.488;8.226;2023-11-19T18:54:53;14.30;99.90
18894;DHT22;9579;49.488;8.226;2023-11-19T18:57:40;14.30;99.90
18894;DHT22;9579;49.488;8.226;2023-11-19T19:00:27;14.20;99.90
18894;DHT22;9579;49.488;8.226;2023-11-19T19:03:14;14.20;99.90
18894;DHT22;9579;49.488;8.226;2023-11-19T19:06:06;14.10;99.90
18894;DHT22;9579;49.488;8.226;2023-11-19T19:08:54;14.10;99.90
18894;DHT22;9579;49.488;8.226;2023-11-19T19:11:41;14.20;99.90
18894;DHT22;9579;49.488;8.226;2023-11-19T19:14:29;14.10;99.90
18894;DHT22;9579;49.488;8.226;2023-11-19T19:17:16;14.10;99.90
18894;DHT22;9579;49.488;8.226;2023-11-19T19:20:06;14.00;99.90
18894;DHT22;9579;49.488;8.226;2023-11-19T19:22:56;14.00;99.90
18894;DHT22;9579;49.488;8.226;2023-11-19T19:25:44;14.00;99.90
18894;DHT22;9579;49.488;8.226;2023-11-19T19:28:31;13.90;99.90
18894;DHT22;9579;49.488;8.226;2023-11-19T19:31:23;13.90;99.90
18894;DHT22;9579;49.488;8.226;2023-11-19T19:34:10;14.00;99.90
18894;DHT22;9579;49.488;8.226;2023-11-19T19:36:58;14.00;99.90
18894;DHT22;9579;49.488;8.226;2023-11-19T19:39:45;14.00;99.90
18894;DHT22;9579;49.488;8.226;2023-11-19T19:42:33;14.00;99.90
18894;DHT22;9579;49.488;8.226;2023-11-19T19:45:20;14.10;99.90
18894;DHT22;9579;49.488;8.226;2023-11-19T19:48:07;14.20;99.90
18894;DHT22;9579;49.488;8.226;2023-11-19T19:50:55;14.20;99.90
18894;DHT22;9579;49.488;8.226;2023-11-19T19:53:42;14.20;99.90
18894;DHT22;9579;49.488;8.226;2023-11-19T19:56:30;14.20;99.90
18894;DHT22;9579;49.488;8.226;2023-11-19T19:59:18;14.20;99.90
18894;DHT22;9579;49.488;8.226;2023-11-19T20:02:05;14.20;99.90
18894;DHT22;9579;49.488;8.226;2023-11-19T20:04:52;14.20;99.90
18894;DHT22;9579;49.488;8.226;2023-11-19T20:07:42;14.10;99.90
18894;DHT22;9579;49.488;8.226;2023-11-19T20:10:29;14.30;99.90
18894;DHT22;9579;49.488;8.226;2023-11-19T20:13:18;14.30;99.90
18894;DHT22;9579;49.488;8.226;2023-11-19T20:16:10;14.20;99.90
18894;DHT22;9579;49.488;8.226;2023-11-19T20:18:57;14.20;99.90
18894;DHT22;9579;49.488;8.226;2023-11-19T20:21:44;14.20;99.90
18894;DHT22;9579;49.488;8.226;2023-11-19T20:24:31;14.10;99.90
18894;DHT22;9579;49.488;8.226;2023-11-19T20:27:18;14.10;99.90
18894;DHT22;9579;49.488;8.226;2023-11-19T20:30:07;14.00;99.90
18894;DHT22;9579;49.488;8.226;2023-11-19T20:32:56;14.10;99.90
18894;DHT22;9579;49.488;8.226;2023-11-19T20:35:43;14.20;99.90
18894;DHT22;9579;49.488;8.226;2023-11-19T20:38:30;14.30;99.90
18894;DHT22;9579;49.488;8.226;2023-11-19T20:41:17;14.40;99.90
18894;DHT22;9579;49.488;8.226;2023-11-19T20:44:05;14.40;99.90
18894;DHT22;9579;49.488;8.226;2023-11-19T20:46:53;14.40;99.90
18894;DHT22;9579;49.488;8.226;2023-11-19T20:49:42;14.40;99.90
18894;DHT22;9579;49.488;8.226;2023-11-19T20:52:29;14.40;99.90
18894;DHT22;9579;49.488;8.226;2023-11-19T20:55:16;14.30;99.90
18894;DHT22;9579;49.488;8.226;2023-11-19T20:58:04;14.40;99.90
18894;DHT22;9579;49.488;8.226;2023-11-19T21:00:54;14.50;99.90
18894;DHT22;9579;49.488;8.226;2023-11-19T21:03:41;14.50;99.90
18894;DHT22;9579;49.488;8.226;2023-11-19T21:06:30;14.40;99.90
18894;DHT22;9579;49.488;8.226;2023-11-19T21:09:18;14.40;99.90
18894;DHT22;9579;49.488;8.226;2023-11-19T21:12:06;14.30;99.90
18894;DHT22;9579;49.488;8.226;2023-11-19T21:14:54;14.30;99.90
18894;DHT22;9579;49.488;8.226;2023-11-19T21:17:41;14.10;99.90
18894;DHT22;9579;49.488;8.226;2023-11-19T21:20:28;14.20;99.90
18894;DHT22;9579;49.488;8.226;2023-11-19T21:23:17;14.20;99.90
18894;DHT22;9579;49.488;8.226;2023-11-19T21:26:06;14.20;99.90
18894;DHT22;9579;49.488;8.226;2023-11-19T21:28:53;14.20;99.90
18894;DHT22;9579;49.488;8.226;2023-11-19T21:31:41;14.20;99.90
18894;DHT22;9579;49.488;8.226;2023-11-19T21:34:28;14.20;99.90
18894;DHT22;9579;49.488;8.226;2023-11-19T21:37:16;14.30;99.90
18894;DHT22;9579;49.488;8.226;2023-11-19T21:40:05;14.30;99.90
18894;DHT22;9579;49.488;8.226;2023-11-19T21:42:54;14.30;99.90
18894;DHT22;9579;49.488;8.226;2023-11-19T21:45:41;14.20;99.90
18894;DHT22;9579;49.488;8.226;2023-11-19T21:48:28;14.20;99.90
18894;DHT22;9579;49.488;8.226;2023-11-19T21:51:15;14.20;99.90
18894;DHT22;9579;49.488;8.226;2023-11-19T21:54:03;14.20;99.90
18894;DHT22;9579;49.488;8.226;2023-11-19T21:56:51;14.20;99.90
18894;DHT22;9579;49.488;8.226;2023-11-19T21:59:38;14.20;99.90
18894;DHT22;9579;49.488;8.226;2023-11-19T22:02:26;14.20;99.90
18894;DHT22;9579;49.488;8.226;2023-11-19T22:05:13;14.10;99.90
18894;DHT22;9579;49.488;8.226;2023-11-19T22:08:03;14.10;99.90
18894;DHT22;9579;49.488;8.226;2023-11-19T22:10:50;14.20;99.90
18894;DHT22;9579;49.488;8.226;2023-11-19T22:13:39;14.30;99.90
18894;DHT22;9579;49.488;8.226;2023-11-19T22:16:26;14.20;99.90
18894;DHT22;9579;49.488;8.226;2023-11-19T22:24:24;14.10;99.90
18894;DHT22;9579;49.488;8.226;2023-11-19T22:34:58;14.20;99.90
18894;DHT22;9579;49.488;8.226;2023-11-19T22:40:22;13.90;99.90
18894;DHT22;9579;49.488;8.226;2023-11-19T22:43:09;13.90;99.90
18894;DHT22;9579;49.488;8.226;2023-11-19T22:48:34;13.90;99.90
18894;DHT22;9579;49.488;8.226;2023-11-19T22:54:06;14.00;99.90
18894;DHT22;9579;49.488;8.226;2023-11-19T23:00:15;13.00;99.90
18894;DHT22;9579;49.488;8.226;2023-11-19T23:08:25;14.00;99.90
18894;DHT22;9579;49.488;8.226;2023-11-19T23:14:03;14.00;99.90
18894;DHT22;9579;49.488;8.226;2023-11-19T23:19:28;13.80;99.90
18894;DHT22;9579;49.488;8.226;2023-11-19T23:25:07;13.90;99.90
18894;DHT22;9579;49.488;8.226;2023-11-19T23:28:00;13.40;99.90
18894;DHT22;9579;49.488;8.226;2023-11-19T23:30:55;13.60;99.90
18894;DHT22;9579;49.488;8.226;2023-11-19T23:33:45;14.20;99.90
18894;DHT22;9579;49.488;8.226;2023-11-19T23:36:35;13.80;99.90
18894;DHT22;9579;49.488;8.226;2023-11-19T23:39:24;13.00;99.90
18894;DHT22;9579;49.488;8.226;2023-11-19T23:42:13;14.40;99.90
18894;DHT22;9579;49.488;8.226;2023-11-19T23:45:02;13.20;99.90
18894;DHT22;9579;49.488;8.226;2023-11-19T23:47:53;14.00;99.90
18894;DHT22;9579;49.488;8.226;2023-11-19T23:50:47;12.60;99.90
18894;DHT22;9579;49.488;8.226;2023-11-19T23:58:49;14.10;99.90
